Share

Oakville, TX (78060)

8:43 AM CDT on April 24, 2014 (GMT -0500)
RAWS GEORGE WEST TX US (MGWRT2) Elev 214 ft | 28.37 °N, 98.12 °W | Change Station

Current weather conditions updated 37 minutes ago

Clear
Clear
71 °F
Feels Like 71 °F
N
4
Wind Variable Wind from ESE
Gusts 8.0 mph
Sunrise 6:58 AM
Sunset 8:03 PM
Moon Waning Crescent

Today is forecast to be nearly the same temperature as yesterday.

Pressure 29.84 in
Visibility 10.0 miles
Clouds Clear
Dew Point 67 °F
Humidity 87%
Rainfall 0.00 in
Snow Depth Not available.
UV 1 out of 16
Pollen 7.30 out of 12
Air Quality Not available.
Flu Activity Local Activity
METAR KBEA 241335Z AUTO 14008KT 10SM CLR 23/21 A2984 RMK AO2 T02260208

More Conditions Fewer Conditions

Pressure 29.84 in
Visibility 10.0 miles
Clouds Clear
Dew Point 67 °F
Humidity 87%
Rainfall 0.00 in
Snow Depth Not available.
UV 1 out of 16
Pollen 7.30 out of 12
Air Quality Not available.
Flu Activity Local Activity
METAR KBEA 241335Z AUTO 14008KT 10SM CLR 23/21 A2984 RMK AO2 T02260208

More Conditions Fewer Conditions

10-Day Weather Forecast

Almanac

Astronomy

Apr. 24, 2014 Rise Set
Actual Time 6:58 AM CDT 8:03 PM CDT
Civil Twilight 6:33 AM CDT 8:27 PM CDT
Nautical Twilight 6:04 AM CDT 8:57 PM CDT
Astronomical Twilight 5:34 AM CDT 9:27 PM CDT
Moon 3:44 AM CDT 3:43 PM CDT
Length of Visible Light 13h 54m
Length of Day
13h 05m
Tomorrow will be 1m 31s longer.
Waning Crescent, 25% of the Moon is Illuminated
Today
Waning Crescent
Apr 29
New
May 6
First Quarter
May 14
Full
May 21
Last Quarter

Today's Extremes

State Highs State Lows

Community

  • Stacked
    Stacked
  • clouds approaching Red Sox Nation
    clouds approaching Red Sox Nation
  • Balance
    Balance
  • Citysky
    Citysky
  • Nestled In
    Nestled In

WunderPhotos

Upload Photos

1,704,607 photos uploaded!

Nearby

Snow Depth

Station Depth Elevation
No new snow has been reported.

Coastal Water Temperatures

Place Temperature
No Stations Reporting

Earthquake Activity

City Distance Mag. Time & Date
No recent earthquake activity has been reported nearby.
Minimum magnitude displayed is 2.5.

Nearby Weather Stations

Station Location Temp. Heat Index Dew Point Humidity Wind Precip. Elev Updated Type
RAWS GEORGE WEST TX, Three Rivers, TX 71 °F - 67 °F 87% ESE  at  4 mph 0.00 in / hr 214 ft 8:06 AM CDT MADIS
MesoWest WHITT , Whitsett, TX 69 °F - - - North  at  - 0.00 in / hr 202 ft 6:25 AM CDT MADIS
Sunset Villas, Mathis, TX 74.5 °F 77 °F 50 °F 42% SW  at  4.9 mph 0.00 in / hr 120 ft 8:42 AM CDT Rapid Fire
MesoWest MATHIS , Corpus Christi, TX 70 °F - - - North  at  - 0.00 in / hr 145 ft 5:35 AM CDT MADIS
Argenta Community, Mathis, TX 72.0 °F - 70 °F 93% SSE  at  15.2 mph 0.00 in / hr 215 ft 8:42 AM CDT Rapid Fire

Show More Stations Show Fewer Stations

What do you think?

We're not finished. Please let us know what you like, what you don't like, and what you are still missing.